aviador You're here:

KFAY Decoded Metar

FAYETTEVILLE in NC, USA
Report Time2017-09-23 17:53:00
UTC Time2017-09-23 18:23:47
Flight Rules vfr VFR
Wind020° at 11 kt
W.Decomp.*RWY 04: 10.7 kt HW 2.5 kt LCW
RWY 10: 3.2 kt HW 10.5 kt LCW
W.Rank020° ranks 4
Current wind is above 020° avg. (7.4)
Visibility9999 m
Phenomena:N/A
Clouds:N/A
Expected CloudBase > 6,800 ft AGL from Temp-Dew spread
CeilingNone
Temp31°C (ISA +16)
Dew Point14°C (35% RH)
Heat Index30.3°C
AAT28.2°C
QNH1017 hPa
Density Alt2,133 ft
Elevation180 ft
Report Wrong Elevation
Raw Report
METAR KFAY 231753Z 02011KT 10SM CLR 31/14 A3003 RMK AO2 SLP163 T03110139
10311 20206 58008=

Extra information for KFAY:More info

Metar Taf Metar & Taf Last 4 Metars F.Rules Stats Wind Profile Meteogram Temp Stats Airport Information Weather charts Add Link Nearby VenuesMetar ALERT Operation Metar Decoded Social comments

AIRNAV info for KFAY